createdAt,value
2018-12-07T00:02:05.783Z,3.40
2018-12-07T00:04:34.602Z,3.50
2018-12-07T00:07:04.912Z,3.50
2018-12-07T00:09:38.557Z,3.00
2018-12-07T00:12:07.500Z,3.40
2018-12-07T00:14:43.946Z,3.97
2018-12-07T00:17:12.910Z,2.83
2018-12-07T00:19:48.105Z,3.30
2018-12-07T00:22:16.648Z,3.67
2018-12-07T00:24:45.414Z,4.33
2018-12-07T00:27:14.679Z,3.67
2018-12-07T00:29:43.460Z,2.97
2018-12-07T00:32:13.103Z,3.50
2018-12-07T00:34:42.268Z,2.60
2018-12-07T00:37:11.082Z,3.77
2018-12-07T00:39:39.924Z,3.17
2018-12-07T00:42:09.091Z,2.90
2018-12-07T00:44:38.030Z,3.70
2018-12-07T00:47:07.081Z,4.87
2018-12-07T00:49:36.335Z,5.60
2018-12-07T00:52:16.970Z,4.87
2018-12-07T00:54:45.765Z,3.60
2018-12-07T00:57:14.590Z,6.13
2018-12-07T00:59:43.385Z,7.40
2018-12-07T01:02:12.636Z,11.23
2018-12-07T01:04:41.432Z,14.70
2018-12-07T01:07:10.265Z,18.80
2018-12-07T01:09:39.382Z,19.00
2018-12-07T01:12:08.180Z,19.27
2018-12-07T01:14:37.074Z,19.63
2018-12-07T01:17:06.219Z,19.93
2018-12-07T01:22:10.014Z,3.60
2018-12-07T01:24:39.292Z,2.80
2018-12-07T01:27:12.825Z,2.60
2018-12-07T01:29:41.609Z,3.07
2018-12-07T01:32:10.921Z,1.90
2018-12-07T01:34:39.710Z,2.10
2018-12-07T01:37:11.888Z,2.27
2018-12-07T01:39:41.090Z,2.00
2018-12-07T01:42:09.920Z,2.70
2018-12-07T01:44:38.758Z,4.03
2018-12-07T01:47:07.608Z,5.90
2018-12-07T01:49:36.396Z,6.07
2018-12-07T01:52:06.795Z,5.50
2018-12-07T01:54:39.464Z,6.07
2018-12-07T01:57:08.287Z,8.87
2018-12-07T01:59:38.788Z,4.10
2018-12-07T02:02:07.634Z,1.90
2018-12-07T02:04:36.936Z,5.33
2018-12-07T02:07:17.101Z,5.20
2018-12-07T02:09:46.353Z,1.90
2018-12-07T02:12:21.338Z,2.10
2018-12-07T02:14:50.177Z,2.90
2018-12-07T02:17:18.989Z,5.40
2018-12-07T02:19:47.768Z,2.73
2018-12-07T02:22:17.068Z,2.43
2018-12-07T02:24:46.023Z,11.53
2018-12-07T02:27:14.889Z,2.93
2018-12-07T02:29:44.079Z,2.93
2018-12-07T02:32:12.821Z,4.40
2018-12-07T02:34:41.732Z,5.33
2018-12-07T02:37:10.974Z,7.50
2018-12-07T02:39:39.768Z,3.60
2018-12-07T02:42:11.895Z,3.40
2018-12-07T02:44:41.074Z,3.00
2018-12-07T02:47:12.873Z,2.50
2018-12-07T02:49:41.709Z,2.20
2018-12-07T02:52:10.609Z,2.43
2018-12-07T02:54:39.345Z,8.20
2018-12-07T02:57:14.146Z,9.47
2018-12-07T02:59:46.496Z,15.67
2018-12-07T03:02:15.355Z,20.37
2018-12-07T03:04:44.234Z,24.00
2018-12-07T03:07:13.045Z,22.27
2018-12-07T03:09:42.332Z,19.63
2018-12-07T03:12:14.757Z,22.23
2018-12-07T03:14:43.553Z,21.40
2018-12-07T03:17:14.108Z,20.30
2018-12-07T03:19:42.879Z,18.77
2018-12-07T03:24:42.776Z,13.60
2018-12-07T03:27:17.460Z,7.20
2018-12-07T03:29:46.444Z,7.10
2018-12-07T03:32:20.645Z,6.57
2018-12-07T03:34:49.354Z,4.30
2018-12-07T03:37:19.443Z,4.73
2018-12-07T03:39:48.812Z,3.77
2018-12-07T03:42:17.527Z,3.30
2018-12-07T03:44:46.738Z,2.37
2018-12-07T03:47:15.540Z,1.97
2018-12-07T03:49:44.345Z,2.47
2018-12-07T03:52:13.699Z,2.33
2018-12-07T03:54:45.673Z,1.73
2018-12-07T03:57:14.476Z,1.97
2018-12-07T03:59:43.638Z,1.73
2018-12-07T04:02:12.462Z,1.93
2018-12-07T04:04:41.409Z,5.10
2018-12-07T04:07:14.291Z,10.50
2018-12-07T04:09:43.124Z,16.47
2018-12-07T04:12:11.975Z,16.20
2018-12-07T04:14:40.947Z,16.23
2018-12-07T04:17:09.837Z,11.50
2018-12-07T04:19:45.709Z,10.47
2018-12-07T04:22:14.543Z,2.93
2018-12-07T04:24:43.613Z,1.27
2018-12-07T04:27:12.402Z,1.73
2018-12-07T04:29:41.373Z,1.50
2018-12-07T04:32:10.605Z,1.13
2018-12-07T04:34:39.358Z,1.30
2018-12-07T04:37:08.215Z,1.27
2018-12-07T04:39:43.948Z,1.47
2018-12-07T04:42:12.812Z,1.10
2018-12-07T04:44:41.841Z,1.27
2018-12-07T04:47:10.781Z,1.30
2018-12-07T04:49:39.538Z,2.50
2018-12-07T04:52:08.789Z,4.47
2018-12-07T04:54:37.576Z,5.63
2018-12-07T04:57:06.353Z,7.40
2018-12-07T04:59:38.857Z,11.13
2018-12-07T05:02:07.663Z,8.50
2018-12-07T05:04:36.577Z,10.70
2018-12-07T05:07:11.477Z,11.03
2018-12-07T05:09:40.290Z,11.00
2018-12-07T05:12:09.439Z,7.30
2018-12-07T05:14:38.233Z,3.73
2018-12-07T05:17:07.008Z,3.10
2018-12-07T05:19:36.163Z,5.93
2018-12-07T05:22:06.163Z,6.50
2018-12-07T05:24:35.103Z,8.47
2018-12-07T05:27:04.525Z,11.70
2018-12-07T05:29:39.722Z,12.70
2018-12-07T05:32:09.361Z,13.13
2018-12-07T05:34:38.192Z,2.10
2018-12-07T05:37:07.047Z,1.63
2018-12-07T05:42:06.050Z,1.10
2018-12-07T05:44:34.865Z,1.10
2018-12-07T05:47:04.636Z,3.73
2018-12-07T05:49:33.546Z,1.50
2018-12-07T05:52:09.280Z,1.27
2018-12-07T05:54:38.133Z,1.23
2018-12-07T05:57:06.979Z,1.50
2018-12-07T05:59:40.147Z,1.60
2018-12-07T06:02:09.064Z,2.27
2018-12-07T06:04:39.003Z,6.60
2018-12-07T06:07:08.235Z,8.90
2018-12-07T06:09:37.042Z,6.07
2018-12-07T06:12:07.315Z,2.50
2018-12-07T06:14:36.452Z,2.23
2018-12-07T06:17:05.444Z,1.30
2018-12-07T06:19:34.246Z,1.07
2018-12-07T06:22:04.320Z,1.40
2018-12-07T06:24:33.368Z,7.83
2018-12-07T06:27:02.460Z,2.50
2018-12-07T06:29:31.685Z,3.67
2018-12-07T06:32:00.758Z,5.27
2018-12-07T06:34:30.185Z,4.80
2018-12-07T06:36:59.408Z,6.50
2018-12-07T06:39:28.374Z,7.10
2018-12-07T06:41:57.282Z,5.13
2018-12-07T06:44:26.451Z,5.53
2018-12-07T06:46:58.649Z,7.70
2018-12-07T06:49:27.467Z,10.80
2018-12-07T06:51:56.281Z,6.07
2018-12-07T06:54:25.117Z,10.10
2018-12-07T06:56:59.704Z,10.67
2018-12-07T06:59:28.538Z,9.50
2018-12-07T07:01:57.414Z,9.40
2018-12-07T07:04:26.245Z,5.80
2018-12-07T07:06:55.098Z,5.30
2018-12-07T07:09:24.394Z,6.30
2018-12-07T07:11:59.131Z,4.30
2018-12-07T07:14:28.028Z,4.63
2018-12-07T07:17:05.821Z,4.00
2018-12-07T07:19:39.415Z,2.97
2018-12-07T07:22:18.689Z,2.80
2018-12-07T07:24:47.841Z,2.10
2018-12-07T07:29:44.171Z,1.80
2018-12-07T07:32:13.070Z,1.10
2018-12-07T07:34:42.075Z,1.50
2018-12-07T07:37:11.312Z,1.33
2018-12-07T07:39:40.608Z,1.10
2018-12-07T07:42:09.427Z,1.00
2018-12-07T07:44:38.665Z,1.00
2018-12-07T07:47:07.510Z,1.20
2018-12-07T07:52:17.598Z,1.27
2018-12-07T07:54:52.689Z,0.80
2018-12-07T07:57:28.450Z,0.73
2018-12-07T08:00:08.216Z,0.93
2018-12-07T08:02:37.075Z,1.17
2018-12-07T08:05:07.045Z,1.30
2018-12-07T08:07:35.870Z,0.93
2018-12-07T08:10:07.795Z,0.90
2018-12-07T08:12:36.646Z,0.97
2018-12-07T08:15:06.545Z,1.13
2018-12-07T08:17:35.877Z,0.83
2018-12-07T08:20:06.018Z,2.20
2018-12-07T08:22:34.892Z,1.03
2018-12-07T08:25:07.408Z,0.90
2018-12-07T08:27:36.260Z,1.07
2018-12-07T08:30:13.701Z,1.00
2018-12-07T08:32:43.029Z,1.57
2018-12-07T08:35:12.055Z,1.90
2018-12-07T08:37:40.894Z,1.67
2018-12-07T08:40:10.323Z,2.60
2018-12-07T08:42:39.192Z,2.77
2018-12-07T08:45:13.593Z,6.80
2018-12-07T08:47:42.935Z,5.83
2018-12-07T08:50:11.855Z,6.03
2018-12-07T08:52:40.714Z,3.17
2018-12-07T08:55:10.263Z,1.40
2018-12-07T08:57:39.107Z,1.10
2018-12-07T09:00:10.698Z,1.00
2018-12-07T09:02:42.834Z,0.80
2018-12-07T09:05:11.819Z,1.00
2018-12-07T09:07:40.645Z,1.47
2018-12-07T09:10:09.908Z,1.87
2018-12-07T09:12:42.251Z,1.20
2018-12-07T09:15:11.104Z,2.10
2018-12-07T09:17:40.066Z,3.07
2018-12-07T09:20:09.257Z,2.80
2018-12-07T09:22:38.467Z,3.37
2018-12-07T09:25:07.463Z,2.40
2018-12-07T09:27:36.292Z,1.77
2018-12-07T09:30:06.790Z,1.80
2018-12-07T09:32:35.580Z,0.73
2018-12-07T09:35:04.486Z,5.50
2018-12-07T09:37:33.676Z,1.53
2018-12-07T09:40:04.162Z,1.20
2018-12-07T09:42:36.232Z,1.07
2018-12-07T09:45:06.192Z,1.50
2018-12-07T09:47:35.002Z,1.23
2018-12-07T09:50:05.116Z,1.00
2018-12-07T09:52:34.447Z,1.20
2018-12-07T09:55:03.484Z,1.43
2018-12-07T09:57:37.184Z,0.83
2018-12-07T10:00:08.180Z,1.60
2018-12-07T10:11:28.580Z,0.90
2018-12-07T10:13:57.522Z,0.83
2018-12-07T10:16:26.477Z,1.17
2018-12-07T10:18:55.603Z,1.37
2018-12-07T10:21:24.540Z,0.90
2018-12-07T10:23:58.746Z,1.30
2018-12-07T10:29:29.713Z,1.00
2018-12-07T10:31:58.527Z,1.27
2018-12-07T10:34:27.767Z,1.30
2018-12-07T10:36:56.728Z,1.40
2018-12-07T10:39:30.472Z,0.90
2018-12-07T10:41:59.988Z,1.00
2018-12-07T10:44:32.027Z,0.90
2018-12-07T10:47:01.422Z,1.47
2018-12-07T10:49:30.582Z,0.70
2018-12-07T10:51:59.730Z,0.80
2018-12-07T10:54:29.458Z,1.03
2018-12-07T10:56:58.356Z,1.27
2018-12-07T10:59:27.232Z,1.10
2018-12-07T11:02:04.440Z,1.20
2018-12-07T11:04:38.409Z,1.77
2018-12-07T11:07:23.515Z,1.13
2018-12-07T11:15:28.557Z,1.40
2018-12-07T11:20:42.219Z,0.83
2018-12-07T11:23:17.123Z,0.80
2018-12-07T11:25:52.589Z,1.20
2018-12-07T11:28:26.654Z,1.40
2018-12-07T11:31:01.129Z,1.00
2018-12-07T11:33:40.839Z,0.93
2018-12-07T11:36:10.160Z,1.00
2018-12-07T11:38:38.989Z,0.73
2018-12-07T11:41:07.792Z,0.60
2018-12-07T11:43:36.942Z,1.10
2018-12-07T11:46:06.949Z,1.00
2018-12-07T11:48:39.065Z,0.90
2018-12-07T11:51:13.743Z,0.80
2018-12-07T11:53:49.504Z,0.80
2018-12-07T11:56:18.661Z,0.60
2018-12-07T11:59:03.117Z,0.90
2018-12-07T12:01:44.442Z,0.57
2018-12-07T12:04:08.792Z,1.10
2018-12-07T12:06:43.513Z,0.70
2018-12-07T12:09:12.379Z,0.63
2018-12-07T12:11:41.332Z,0.80
2018-12-07T12:14:10.529Z,0.67
2018-12-07T12:16:39.370Z,1.27
2018-12-07T12:19:08.186Z,1.50
2018-12-07T12:21:37.383Z,0.73
2018-12-07T12:24:17.085Z,0.80
2018-12-07T12:26:50.966Z,0.90
2018-12-07T12:29:20.007Z,0.70
2018-12-07T12:31:48.901Z,0.87
2018-12-07T12:34:18.112Z,0.80
2018-12-07T12:36:46.961Z,0.80
2018-12-07T12:39:15.767Z,0.87
2018-12-07T12:41:46.833Z,1.17
2018-12-07T12:44:15.914Z,1.07
2018-12-07T12:46:44.828Z,0.53
2018-12-07T12:49:14.014Z,1.20
2018-12-07T12:51:48.061Z,1.00
2018-12-07T12:54:21.847Z,1.47
2018-12-07T12:56:50.678Z,1.30
2018-12-07T12:59:25.740Z,1.87
2018-12-07T13:01:54.607Z,4.37
2018-12-07T13:04:29.633Z,2.30
2018-12-07T13:06:58.437Z,1.17
2018-12-07T13:09:32.338Z,1.20
2018-12-07T13:12:02.368Z,0.90
2018-12-07T13:14:31.208Z,0.57
2018-12-07T13:17:06.754Z,0.60
2018-12-07T13:19:35.855Z,0.50
2018-12-07T13:22:06.746Z,0.63
2018-12-07T13:24:35.631Z,0.50
2018-12-07T13:27:06.065Z,0.60
2018-12-07T13:29:41.159Z,0.70
2018-12-07T13:32:10.118Z,0.60
2018-12-07T13:34:38.973Z,0.60
2018-12-07T13:37:07.856Z,0.50
2018-12-07T13:39:37.052Z,0.93
2018-12-07T13:42:06.126Z,1.20
2018-12-07T13:44:35.228Z,0.73
2018-12-07T13:47:10.287Z,0.80
2018-12-07T13:49:39.155Z,0.80
2018-12-07T13:52:08.121Z,0.80
2018-12-07T13:54:37.239Z,0.80
2018-12-07T13:57:06.306Z,0.77
2018-12-07T13:59:35.983Z,0.90
2018-12-07T14:02:06.439Z,1.03
2018-12-07T14:04:35.522Z,0.80
2018-12-07T14:07:06.477Z,0.80
2018-12-07T14:09:35.844Z,0.83
2018-12-07T14:12:11.910Z,0.67
2018-12-07T14:14:40.825Z,0.57
2018-12-07T14:17:11.516Z,1.23
2018-12-07T14:19:40.338Z,0.87
2018-12-07T14:22:09.663Z,1.03
2018-12-07T14:24:44.000Z,0.60
2018-12-07T14:27:12.950Z,1.90
2018-12-07T14:29:41.911Z,0.73
2018-12-07T14:32:11.038Z,0.90
2018-12-07T14:34:40.242Z,0.73
2018-12-07T14:37:12.321Z,0.80
2018-12-07T14:39:41.190Z,0.77
2018-12-07T14:42:16.939Z,0.70
2018-12-07T14:44:45.818Z,0.70
2018-12-07T14:47:14.765Z,0.63
2018-12-07T14:49:43.786Z,0.60
2018-12-07T14:52:12.929Z,0.50
2018-12-07T14:54:52.961Z,0.50
2018-12-07T14:57:22.221Z,0.87
2018-12-07T14:59:52.126Z,0.90
2018-12-07T15:02:21.064Z,1.50
2018-12-07T15:04:49.987Z,0.60
2018-12-07T15:07:19.198Z,0.50
2018-12-07T15:09:50.105Z,0.70
2018-12-07T15:12:19.117Z,0.80
2018-12-07T15:14:48.285Z,1.00
2018-12-07T15:17:17.215Z,0.60
2018-12-07T15:19:46.272Z,0.50
2018-12-07T15:22:15.840Z,0.67
2018-12-07T15:24:44.748Z,0.90
2018-12-07T15:27:13.830Z,0.50
2018-12-07T15:29:43.177Z,0.63
2018-12-07T15:32:12.321Z,0.60
2018-12-07T15:34:41.705Z,0.70
2018-12-07T15:37:11.170Z,0.50
2018-12-07T15:39:40.426Z,0.70
2018-12-07T15:42:09.399Z,0.60
2018-12-07T15:44:40.862Z,0.60
2018-12-07T15:47:10.111Z,0.83
2018-12-07T15:49:43.024Z,0.70
2018-12-07T15:52:13.183Z,0.90
2018-12-07T15:54:42.588Z,0.80
2018-12-07T15:57:11.761Z,1.00
2018-12-07T15:59:41.284Z,0.60
2018-12-07T16:02:10.316Z,0.60
2018-12-07T16:04:39.393Z,0.90
2018-12-07T16:07:08.949Z,1.20
2018-12-07T16:09:50.568Z,0.77
2018-12-07T16:12:20.252Z,0.90
2018-12-07T16:14:49.675Z,0.90
2018-12-07T16:17:19.256Z,0.80
2018-12-07T16:19:53.997Z,0.73
2018-12-07T16:22:23.537Z,0.90
2018-12-07T16:25:00.686Z,0.87
2018-12-07T16:27:30.366Z,0.70
2018-12-07T16:29:59.954Z,1.10
2018-12-07T16:32:30.002Z,1.00
2018-12-07T16:34:59.719Z,1.10
2018-12-07T16:37:29.614Z,0.60
2018-12-07T16:39:59.490Z,0.60
2018-12-07T16:42:29.153Z,0.70
2018-12-07T16:44:58.803Z,0.50
2018-12-07T16:47:30.084Z,0.80
2018-12-07T16:50:00.175Z,1.23
2018-12-07T16:52:29.727Z,0.70
2018-12-07T16:54:59.696Z,0.90
2018-12-07T16:57:29.271Z,0.80
2018-12-07T16:59:59.049Z,0.70
2018-12-07T17:02:32.580Z,0.83
2018-12-07T17:05:02.497Z,0.70
2018-12-07T17:07:35.729Z,0.80
2018-12-07T17:10:11.486Z,0.80
2018-12-07T17:12:41.255Z,1.10
2018-12-07T17:15:11.248Z,0.97
2018-12-07T17:17:43.093Z,0.83
2018-12-07T17:20:12.582Z,0.90
2018-12-07T17:22:42.070Z,0.70
2018-12-07T17:25:12.240Z,0.80
2018-12-07T17:27:41.812Z,0.67
2018-12-07T17:30:17.098Z,0.70
2018-12-07T17:32:46.631Z,0.63
2018-12-07T17:35:17.765Z,0.70
2018-12-07T17:37:47.963Z,0.70
2018-12-07T17:40:18.303Z,1.07
2018-12-07T17:42:48.231Z,0.63
2018-12-07T17:45:18.312Z,1.20
2018-12-07T17:47:47.955Z,0.90
2018-12-07T17:50:18.670Z,1.20
2018-12-07T17:52:48.576Z,1.83
2018-12-07T17:55:18.294Z,1.17
2018-12-07T17:57:47.892Z,1.10
2018-12-07T18:00:17.944Z,0.83
2018-12-07T18:02:47.602Z,1.03
2018-12-07T18:05:17.188Z,1.00
2018-12-07T18:07:47.624Z,1.10
2018-12-07T18:10:17.865Z,1.37
2018-12-07T18:12:47.734Z,1.10
2018-12-07T18:15:17.613Z,1.30
2018-12-07T18:17:47.184Z,1.20
2018-12-07T18:20:16.927Z,1.20
2018-12-07T18:22:46.801Z,0.80
2018-12-07T18:25:22.145Z,0.87
2018-12-07T18:27:51.757Z,1.27
2018-12-07T18:30:26.747Z,2.23
2018-12-07T18:32:56.524Z,1.23
2018-12-07T18:35:26.437Z,1.17
2018-12-07T18:38:02.783Z,1.50
2018-12-07T18:40:42.008Z,1.50
2018-12-07T18:43:11.676Z,2.00
2018-12-07T18:45:42.299Z,1.60
2018-12-07T18:48:12.080Z,1.70
2018-12-07T18:50:41.712Z,2.10
2018-12-07T18:53:18.143Z,2.20
2018-12-07T18:55:47.842Z,2.73
2018-12-07T18:58:17.787Z,2.70
2018-12-07T19:00:52.346Z,2.50
2018-12-07T19:03:22.093Z,2.47
2018-12-07T19:05:51.703Z,2.87
2018-12-07T19:08:22.782Z,3.90
2018-12-07T19:10:58.583Z,4.00
2018-12-07T19:13:28.358Z,4.33
2018-12-07T19:16:01.430Z,2.73
2018-12-07T19:18:31.689Z,2.17
2018-12-07T19:21:02.005Z,1.23
2018-12-07T19:23:31.885Z,1.67
2018-12-07T19:26:01.710Z,1.20
2018-12-07T19:28:31.856Z,1.20
2018-12-07T19:31:01.811Z,0.80
2018-12-07T19:33:31.541Z,1.10
2018-12-07T19:36:03.292Z,1.10
2018-12-07T19:38:32.908Z,1.03
2018-12-07T19:41:03.240Z,0.50
2018-12-07T19:43:33.548Z,0.80
2018-12-07T19:46:04.388Z,0.50
2018-12-07T19:48:34.151Z,0.70
2018-12-07T19:51:07.324Z,0.67
2018-12-07T19:53:40.909Z,4.17
2018-12-07T19:56:10.671Z,0.63
2018-12-07T20:01:20.924Z,0.80
2018-12-07T20:03:50.533Z,0.57
2018-12-07T20:06:20.970Z,0.90
2018-12-07T20:08:51.250Z,1.03
2018-12-07T20:11:28.907Z,0.70
2018-12-07T20:13:58.643Z,1.00
2018-12-07T20:16:34.249Z,0.80
2018-12-07T20:19:04.638Z,1.00
2018-12-07T20:21:37.384Z,0.90
2018-12-07T20:24:08.150Z,1.00
2018-12-07T20:26:37.931Z,0.80
2018-12-07T20:29:07.772Z,1.00
2018-12-07T20:31:48.386Z,1.07
2018-12-07T20:34:18.413Z,1.47
2018-12-07T20:36:48.533Z,1.17
2018-12-07T20:39:18.477Z,1.03
2018-12-07T20:41:48.945Z,1.20
2018-12-07T20:44:19.005Z,1.53
2018-12-07T20:46:48.752Z,1.30
2018-12-07T20:49:27.054Z,1.43
2018-12-07T20:51:57.021Z,2.80
2018-12-07T20:54:31.124Z,1.50
2018-12-07T20:57:00.802Z,1.40
2018-12-07T20:59:31.797Z,1.73
2018-12-07T21:02:03.099Z,1.00
2018-12-07T21:04:36.507Z,1.60
2018-12-07T21:07:21.910Z,0.70
2018-12-07T21:11:37.309Z,1.03
2018-12-07T21:14:42.350Z,1.03
2018-12-07T21:17:18.118Z,0.90
2018-12-07T21:19:57.126Z,1.10
2018-12-07T21:22:27.399Z,1.40
2018-12-07T21:24:57.240Z,1.20
2018-12-07T21:27:27.851Z,1.60
2018-12-07T21:31:02.023Z,1.40
2018-12-07T21:33:50.334Z,1.30
2018-12-07T21:36:50.962Z,1.40
2018-12-07T21:39:23.727Z,1.23
2018-12-07T21:41:53.830Z,1.50
2018-12-07T21:44:23.435Z,1.80
2018-12-07T21:46:53.022Z,1.53
2018-12-07T21:49:27.024Z,1.30
2018-12-07T21:52:07.059Z,1.33
2018-12-07T21:54:37.016Z,1.67
2018-12-07T21:57:06.641Z,1.87
2018-12-07T21:59:36.236Z,2.00
2018-12-07T22:02:07.792Z,1.47
2018-12-07T22:04:42.339Z,1.53
2018-12-07T22:07:11.994Z,1.57
2018-12-07T22:09:41.921Z,1.73
2018-12-07T22:12:11.625Z,1.93
2018-12-07T22:14:41.502Z,1.20
2018-12-07T22:17:12.906Z,1.50
2018-12-07T22:19:42.401Z,1.93
2018-12-07T22:22:12.003Z,1.50
2018-12-07T22:24:42.198Z,2.47
2018-12-07T22:27:11.377Z,2.20
2018-12-07T22:29:40.687Z,1.87
2018-12-07T22:32:15.679Z,1.97
2018-12-07T22:34:44.628Z,1.77
2018-12-07T22:37:13.631Z,1.60
2018-12-07T22:39:43.061Z,1.40
2018-12-07T22:42:12.207Z,1.67
2018-12-07T22:44:41.472Z,1.23
2018-12-07T22:47:10.854Z,1.80
2018-12-07T22:49:39.787Z,1.97
2018-12-07T22:52:14.029Z,1.83
2018-12-07T22:54:43.371Z,1.70
2018-12-07T22:57:12.391Z,1.70
2018-12-07T22:59:46.559Z,1.23
2018-12-07T23:02:16.169Z,1.10
2018-12-07T23:04:48.097Z,1.50
2018-12-07T23:07:16.954Z,1.50
2018-12-07T23:09:45.791Z,1.57
2018-12-07T23:12:14.633Z,1.53
2018-12-07T23:14:45.434Z,1.00
2018-12-07T23:17:14.259Z,0.80
2018-12-07T23:19:43.604Z,1.33
2018-12-07T23:22:12.955Z,1.23
2018-12-07T23:24:42.948Z,1.20
2018-12-07T23:27:11.917Z,1.27
2018-12-07T23:29:51.887Z,1.40
2018-12-07T23:32:20.730Z,1.43
2018-12-07T23:34:55.096Z,1.43
2018-12-07T23:37:23.993Z,1.00
2018-12-07T23:39:57.636Z,1.77
2018-12-07T23:42:26.434Z,1.67
2018-12-07T23:44:55.256Z,1.90
2018-12-07T23:47:24.463Z,1.70
2018-12-07T23:49:58.673Z,1.83
2018-12-07T23:52:27.473Z,1.80
2018-12-07T23:54:56.590Z,1.73
2018-12-07T23:57:25.386Z,1.77
2018-12-07T23:59:54.142Z,1.70
